createdAt,value
2022-08-10T00:00:21.325Z,100053.00
2022-08-10T00:01:21.408Z,100054.00
2022-08-10T00:02:21.377Z,100050.00
2022-08-10T00:03:21.382Z,100051.00
2022-08-10T00:04:22.320Z,100048.00
2022-08-10T00:05:21.402Z,100049.00
2022-08-10T00:06:21.426Z,100051.00
2022-08-10T00:07:21.445Z,100052.00
2022-08-10T00:08:24.096Z,100050.00
2022-08-10T00:09:21.476Z,100051.00
2022-08-10T00:10:21.453Z,100052.00
2022-08-10T00:11:21.474Z,100050.00
2022-08-10T00:12:21.487Z,100051.00
2022-08-10T00:13:21.522Z,100051.00
2022-08-10T00:14:21.545Z,100049.00
2022-08-10T00:15:52.266Z,100042.00
2022-08-10T00:16:21.551Z,100042.00
2022-08-10T00:17:21.567Z,100043.00
2022-08-10T00:18:34.407Z,100046.00
2022-08-10T00:19:21.611Z,100048.00
2022-08-10T00:20:21.620Z,100042.00
2022-08-10T00:21:21.641Z,100047.00
2022-08-10T00:22:21.659Z,100042.00
2022-08-10T00:23:21.724Z,100042.00
2022-08-10T00:24:21.688Z,100041.00
2022-08-10T00:25:21.712Z,100038.00
2022-08-10T00:26:22.042Z,100040.00
2022-08-10T00:27:47.025Z,100043.00
2022-08-10T00:28:21.775Z,100049.00
2022-08-10T00:29:21.776Z,100048.00
2022-08-10T00:30:21.792Z,100048.00
2022-08-10T00:31:21.817Z,100041.00
2022-08-10T00:32:21.858Z,100044.00
2022-08-10T00:33:21.823Z,100043.00
2022-08-10T00:34:21.833Z,100039.00
2022-08-10T00:35:21.856Z,100038.00
2022-08-10T00:36:21.892Z,100045.00
2022-08-10T00:37:21.893Z,100042.00
2022-08-10T00:38:21.922Z,100042.00
2022-08-10T00:39:21.936Z,100047.00
2022-08-10T00:40:37.918Z,100048.00
2022-08-10T00:41:21.932Z,100045.00
2022-08-10T00:42:21.921Z,100043.00
2022-08-10T00:43:23.525Z,100042.00
2022-08-10T00:44:21.915Z,100045.00
2022-08-10T00:45:21.935Z,100040.00
2022-08-10T00:46:21.969Z,100043.00
2022-08-10T00:47:37.025Z,100040.00
2022-08-10T00:48:21.990Z,100040.00
2022-08-10T00:49:22.013Z,100044.00
2022-08-10T00:50:22.036Z,100041.00
2022-08-10T00:51:22.088Z,100039.00
2022-08-10T00:52:22.093Z,100041.00
2022-08-10T00:53:22.109Z,100038.00
2022-08-10T00:54:24.774Z,100037.00
2022-08-10T00:55:22.144Z,100038.00
2022-08-10T00:57:14.353Z,100040.00
2022-08-10T00:57:22.152Z,100039.00
2022-08-10T00:58:22.152Z,100040.00
2022-08-10T00:59:22.169Z,100038.00
2022-08-10T01:00:22.223Z,100036.00
2022-08-10T01:02:07.329Z,100039.00
2022-08-10T01:02:22.273Z,100039.00
2022-08-10T01:04:54.234Z,100034.00
2022-08-10T01:04:58.767Z,100033.00
2022-08-10T01:05:22.279Z,100035.00
2022-08-10T01:06:22.315Z,100036.00
2022-08-10T01:07:22.340Z,100034.00
2022-08-10T01:08:22.321Z,100038.00
2022-08-10T01:09:22.332Z,100041.00
2022-08-10T01:10:22.346Z,100037.00
2022-08-10T01:12:38.780Z,100036.00
2022-08-10T01:12:38.820Z,100040.00
2022-08-10T01:13:22.421Z,100041.00
2022-08-10T01:14:22.441Z,100039.00
2022-08-10T01:15:22.473Z,100040.00
2022-08-10T01:16:22.472Z,100039.00
2022-08-10T01:17:22.487Z,100038.00
2022-08-10T01:18:22.497Z,100038.00
2022-08-10T01:19:22.534Z,100036.00
2022-08-10T01:20:30.368Z,100038.00
2022-08-10T01:21:22.525Z,100039.00
2022-08-10T01:22:22.565Z,100036.00
2022-08-10T01:23:22.587Z,100035.00
2022-08-10T01:24:25.217Z,100034.00
2022-08-10T01:25:22.636Z,100034.00
2022-08-10T01:26:30.649Z,100036.00
2022-08-10T01:27:27.040Z,100034.00
2022-08-10T01:28:22.681Z,100035.00
2022-08-10T01:29:22.722Z,100034.00
2022-08-10T01:30:22.680Z,100037.00
2022-08-10T01:31:22.685Z,100038.00
2022-08-10T01:32:22.697Z,100037.00
2022-08-10T01:33:58.082Z,100030.00
2022-08-10T01:34:22.765Z,100038.00
2022-08-10T01:35:22.779Z,100036.00
2022-08-10T01:36:32.007Z,100040.00
2022-08-10T01:37:22.775Z,100038.00
2022-08-10T01:38:22.797Z,100043.00
2022-08-10T01:39:22.898Z,100042.00
2022-08-10T01:40:22.837Z,100041.00
2022-08-10T01:41:22.856Z,100040.00
2022-08-10T01:42:22.874Z,100036.00
2022-08-10T01:43:22.850Z,100038.00
2022-08-10T01:44:22.864Z,100039.00
2022-08-10T01:45:22.849Z,100036.00
2022-08-10T01:46:22.830Z,100035.00
2022-08-10T01:47:23.591Z,100037.00
2022-08-10T01:48:22.885Z,100031.00
2022-08-10T01:49:22.904Z,100035.00
2022-08-10T01:50:22.936Z,100033.00
2022-08-10T01:51:22.955Z,100035.00
2022-08-10T01:52:22.987Z,100035.00
2022-08-10T01:53:23.025Z,100038.00
2022-08-10T01:54:23.044Z,100034.00
2022-08-10T01:55:23.077Z,100032.00
2022-08-10T01:56:23.072Z,100035.00
2022-08-10T01:57:23.089Z,100038.00
2022-08-10T01:58:23.113Z,100038.00
2022-08-10T01:59:23.128Z,100036.00
2022-08-10T02:00:23.148Z,100036.00
2022-08-10T02:01:23.232Z,100036.00
2022-08-10T02:02:23.199Z,100041.00
2022-08-10T02:03:23.216Z,100041.00
2022-08-10T02:04:23.241Z,100038.00
2022-08-10T02:05:23.215Z,100037.00
2022-08-10T02:06:23.242Z,100041.00
2022-08-10T02:07:23.251Z,100042.00
2022-08-10T02:08:23.291Z,100043.00
2022-08-10T02:09:23.313Z,100039.00
2022-08-10T02:10:23.323Z,100032.00
2022-08-10T02:11:23.335Z,100044.00
2022-08-10T02:12:23.330Z,100044.00
2022-08-10T02:13:23.358Z,100044.00
2022-08-10T02:14:23.407Z,100041.00
2022-08-10T02:15:23.397Z,100043.00
2022-08-10T02:16:23.369Z,100046.00
2022-08-10T02:17:59.747Z,100046.00
2022-08-10T02:18:23.391Z,100045.00
2022-08-10T02:19:23.420Z,100046.00
2022-08-10T02:20:23.409Z,100047.00
2022-08-10T02:21:23.432Z,100046.00
2022-08-10T02:22:36.446Z,100048.00
2022-08-10T02:23:23.466Z,100046.00
2022-08-10T02:24:23.497Z,100051.00
2022-08-10T02:25:40.901Z,100053.00
2022-08-10T02:26:23.547Z,100052.00
2022-08-10T02:27:23.587Z,100049.00
2022-08-10T02:28:29.268Z,100051.00
2022-08-10T02:29:23.590Z,100049.00
2022-08-10T02:30:23.634Z,100050.00
2022-08-10T02:31:23.647Z,100048.00
2022-08-10T02:32:35.902Z,100046.00
2022-08-10T02:33:23.671Z,100049.00
2022-08-10T02:34:23.663Z,100049.00
2022-08-10T02:35:23.749Z,100042.00
2022-08-10T02:36:27.434Z,100048.00
2022-08-10T02:37:23.751Z,100051.00
2022-08-10T02:38:58.686Z,100052.00
2022-08-10T02:39:23.845Z,100052.00
2022-08-10T02:45:13.776Z,100052.00
2022-08-10T02:45:15.100Z,100057.00
2022-08-10T02:45:21.566Z,100054.00
2022-08-10T02:45:23.749Z,100053.00
2022-08-10T02:45:27.427Z,100053.00
2022-08-10T02:45:30.833Z,100054.00
2022-08-10T02:46:23.896Z,100056.00
2022-08-10T02:47:23.868Z,100055.00
2022-08-10T02:48:23.880Z,100053.00
2022-08-10T02:49:23.887Z,100052.00
2022-08-10T02:50:23.904Z,100053.00
2022-08-10T02:52:07.075Z,100053.00
2022-08-10T02:52:23.964Z,100054.00
2022-08-10T02:53:56.108Z,100057.00
2022-08-10T02:54:23.950Z,100053.00
2022-08-10T02:55:26.952Z,100046.00
2022-08-10T02:56:23.976Z,100054.00
2022-08-10T02:57:23.967Z,100056.00
2022-08-10T02:58:23.981Z,100060.00
2022-08-10T02:59:24.014Z,100059.00
2022-08-10T03:00:24.022Z,100057.00
2022-08-10T03:01:24.104Z,100058.00
2022-08-10T03:02:24.036Z,100055.00
2022-08-10T03:03:24.070Z,100059.00
2022-08-10T03:04:56.043Z,100060.00
2022-08-10T03:05:24.120Z,100064.00
2022-08-10T03:06:24.129Z,100061.00
2022-08-10T03:07:43.399Z,100063.00
2022-08-10T03:08:24.185Z,100059.00
2022-08-10T03:09:24.200Z,100061.00
2022-08-10T03:10:24.208Z,100056.00
2022-08-10T03:12:35.281Z,100058.00
2022-08-10T03:12:38.415Z,100052.00
2022-08-10T03:13:24.253Z,100062.00
2022-08-10T03:14:24.295Z,100057.00
2022-08-10T03:15:24.274Z,100054.00
2022-08-10T03:16:24.282Z,100056.00
2022-08-10T03:17:24.297Z,100059.00
2022-08-10T03:18:24.343Z,100057.00
2022-08-10T03:20:33.595Z,100062.00
2022-08-10T03:20:35.902Z,100064.00
2022-08-10T03:21:24.382Z,100062.00
2022-08-10T03:22:24.357Z,100063.00
2022-08-10T03:23:24.395Z,100060.00
2022-08-10T03:24:33.296Z,100063.00
2022-08-10T03:25:24.425Z,100061.00
2022-08-10T03:26:24.405Z,100063.00
2022-08-10T03:27:24.441Z,100063.00
2022-08-10T03:28:24.456Z,100063.00
2022-08-10T03:29:24.470Z,100069.00
2022-08-10T03:30:32.487Z,100067.00
2022-08-10T03:31:24.536Z,100063.00
2022-08-10T03:32:24.553Z,100062.00
2022-08-10T03:33:24.577Z,100062.00
2022-08-10T03:34:33.462Z,100064.00
2022-08-10T03:35:24.625Z,100068.00
2022-08-10T03:36:40.493Z,100062.00
2022-08-10T03:37:24.629Z,100060.00
2022-08-10T03:38:24.667Z,100061.00
2022-08-10T03:39:24.714Z,100058.00
2022-08-10T03:40:24.715Z,100063.00
2022-08-10T03:41:24.718Z,100067.00
2022-08-10T03:42:24.720Z,100062.00
2022-08-10T03:43:24.747Z,100063.00
2022-08-10T03:44:24.777Z,100066.00
2022-08-10T03:45:24.788Z,100062.00
2022-08-10T03:46:24.812Z,100064.00
2022-08-10T03:47:24.819Z,100064.00
2022-08-10T03:48:42.477Z,100061.00
2022-08-10T03:49:24.868Z,100063.00
2022-08-10T03:50:27.985Z,100062.00
2022-08-10T03:51:24.912Z,100062.00
2022-08-10T03:52:24.942Z,100060.00
2022-08-10T03:54:04.307Z,100059.00
2022-08-10T03:54:24.958Z,100061.00
2022-08-10T03:56:27.331Z,100058.00
2022-08-10T03:56:29.625Z,100056.00
2022-08-10T03:57:24.997Z,100060.00
2022-08-10T03:58:25.017Z,100055.00
2022-08-10T03:59:25.035Z,100059.00
2022-08-10T04:00:25.062Z,100061.00
2022-08-10T04:02:44.075Z,100060.00
2022-08-10T04:02:44.769Z,100058.00
2022-08-10T04:03:25.112Z,100057.00
2022-08-10T04:04:25.926Z,100057.00
2022-08-10T04:05:25.117Z,100057.00
2022-08-10T04:06:25.137Z,100056.00
2022-08-10T04:07:25.181Z,100056.00
2022-08-10T04:08:25.202Z,100059.00
2022-08-10T04:09:42.673Z,100061.00
2022-08-10T04:10:25.255Z,100060.00
2022-08-10T04:11:25.268Z,100061.00
2022-08-10T04:12:25.298Z,100059.00
2022-08-10T04:13:25.355Z,100064.00
2022-08-10T04:14:47.517Z,100065.00
2022-08-10T04:15:25.373Z,100061.00
2022-08-10T04:16:25.380Z,100068.00
2022-08-10T04:18:04.982Z,100065.00
2022-08-10T04:18:25.415Z,100071.00
2022-08-10T04:19:25.447Z,100074.00
2022-08-10T04:20:25.477Z,100073.00
2022-08-10T04:21:25.503Z,100074.00
2022-08-10T04:22:25.538Z,100069.00
2022-08-10T04:23:25.562Z,100071.00
2022-08-10T04:24:29.763Z,100070.00
2022-08-10T04:25:25.613Z,100069.00
2022-08-10T04:26:25.610Z,100068.00
2022-08-10T04:27:25.634Z,100069.00
2022-08-10T04:28:25.690Z,100071.00
2022-08-10T04:29:25.661Z,100068.00
2022-08-10T04:30:27.929Z,100067.00
2022-08-10T04:31:25.694Z,100067.00
2022-08-10T04:32:25.723Z,100069.00
2022-08-10T04:33:25.739Z,100068.00
2022-08-10T04:34:25.724Z,100070.00
2022-08-10T04:35:25.741Z,100069.00
2022-08-10T04:36:25.784Z,100070.00
2022-08-10T04:37:25.805Z,100073.00
2022-08-10T04:38:25.813Z,100072.00
2022-08-10T04:39:25.914Z,100074.00
2022-08-10T04:40:30.294Z,100073.00
2022-08-10T04:41:25.854Z,100075.00
2022-08-10T04:42:25.936Z,100077.00
2022-08-10T04:43:25.880Z,100075.00
2022-08-10T04:44:25.881Z,100080.00
2022-08-10T04:45:48.793Z,100081.00
2022-08-10T04:46:42.761Z,100081.00
2022-08-10T04:47:57.282Z,100078.00
2022-08-10T04:48:40.444Z,100076.00
2022-08-10T04:49:55.096Z,100073.00
2022-08-10T04:50:25.967Z,100077.00
2022-08-10T04:51:26.011Z,100078.00
2022-08-10T04:52:26.025Z,100075.00
2022-08-10T04:53:26.049Z,100079.00
2022-08-10T04:54:26.071Z,100078.00
2022-08-10T04:55:26.068Z,100075.00
2022-08-10T04:56:31.491Z,100078.00
2022-08-10T04:57:26.130Z,100079.00
2022-08-10T04:58:26.153Z,100078.00
2022-08-10T04:59:26.165Z,100078.00
2022-08-10T05:02:29.007Z,100084.00
2022-08-10T05:02:52.131Z,100081.00
2022-08-10T05:04:36.055Z,100084.00
2022-08-10T05:04:52.132Z,100087.00
2022-08-10T05:05:52.842Z,100083.00
2022-08-10T05:06:52.161Z,100084.00
2022-08-10T05:07:54.224Z,100082.00
2022-08-10T05:08:52.177Z,100081.00
2022-08-10T05:10:01.735Z,100083.00
2022-08-10T05:10:52.216Z,100084.00
2022-08-10T05:11:52.456Z,100080.00
2022-08-10T05:12:52.224Z,100082.00
2022-08-10T05:13:52.264Z,100081.00
2022-08-10T05:14:52.263Z,100080.00
2022-08-10T05:15:52.258Z,100078.00
2022-08-10T05:16:52.282Z,100078.00
2022-08-10T05:18:03.333Z,100079.00
2022-08-10T05:18:52.322Z,100079.00
2022-08-10T05:20:04.853Z,100081.00
2022-08-10T05:20:52.324Z,100079.00
2022-08-10T05:22:03.025Z,100080.00
2022-08-10T05:22:52.364Z,100081.00
2022-08-10T05:23:52.399Z,100085.00
2022-08-10T05:24:52.419Z,100091.00
2022-08-10T05:25:52.442Z,100085.00
2022-08-10T05:26:55.294Z,100091.00
2022-08-10T05:27:52.651Z,100090.00
2022-08-10T05:28:52.509Z,100094.00
2022-08-10T05:30:01.275Z,100095.00
2022-08-10T05:30:52.753Z,100092.00
2022-08-10T05:31:52.579Z,100095.00
2022-08-10T05:32:59.166Z,100086.00
2022-08-10T05:33:52.612Z,100096.00
2022-08-10T05:34:52.623Z,100091.00
2022-08-10T05:35:57.555Z,100094.00
2022-08-10T05:36:52.666Z,100094.00
2022-08-10T05:38:12.871Z,100093.00
2022-08-10T05:38:52.726Z,100092.00
2022-08-10T05:39:52.854Z,100096.00
2022-08-10T05:40:52.729Z,100093.00
2022-08-10T05:41:53.106Z,100098.00
2022-08-10T05:42:52.765Z,100096.00
2022-08-10T05:43:52.788Z,100095.00
2022-08-10T05:44:52.774Z,100093.00
2022-08-10T05:46:16.949Z,100096.00
2022-08-10T05:46:52.826Z,100092.00
2022-08-10T05:48:54.137Z,100094.00
2022-08-10T05:48:59.453Z,100092.00
2022-08-10T05:49:52.854Z,100092.00
2022-08-10T05:50:52.883Z,100090.00
2022-08-10T05:51:52.909Z,100088.00
2022-08-10T05:52:52.907Z,100087.00
2022-08-10T05:54:01.059Z,100087.00
2022-08-10T05:54:52.960Z,100087.00
2022-08-10T05:55:52.994Z,100088.00
2022-08-10T05:56:58.055Z,100090.00
2022-08-10T05:57:53.028Z,100093.00
2022-08-10T05:58:53.065Z,100093.00
2022-08-10T06:00:31.037Z,100092.00
2022-08-10T06:00:53.149Z,100093.00
2022-08-10T06:02:32.159Z,100095.00
2022-08-10T06:02:53.136Z,100094.00
2022-08-10T06:03:53.177Z,100096.00
2022-08-10T06:04:53.180Z,100095.00
2022-08-10T06:05:53.209Z,100098.00
2022-08-10T06:06:53.221Z,100093.00
2022-08-10T06:07:53.233Z,100093.00
2022-08-10T06:08:53.266Z,100096.00
2022-08-10T06:09:59.279Z,100094.00
2022-08-10T06:12:26.486Z,100095.00
2022-08-10T06:12:26.786Z,100096.00
2022-08-10T06:12:56.714Z,100094.00
2022-08-10T06:14:12.860Z,100094.00
2022-08-10T06:15:00.003Z,100095.00
2022-08-10T06:15:53.361Z,100097.00
2022-08-10T06:16:53.362Z,100095.00
2022-08-10T06:18:02.148Z,100092.00
2022-08-10T06:18:53.408Z,100089.00
2022-08-10T06:19:53.393Z,100090.00
2022-08-10T06:20:53.381Z,100090.00
2022-08-10T06:21:54.986Z,100088.00
2022-08-10T06:22:53.426Z,100089.00
2022-08-10T06:23:53.432Z,100089.00
2022-08-10T06:25:23.101Z,100093.00
2022-08-10T06:26:11.670Z,100094.00
2022-08-10T06:26:53.501Z,100092.00
2022-08-10T06:27:53.478Z,100091.00
2022-08-10T06:29:03.028Z,100090.00
2022-08-10T06:29:53.517Z,100095.00
2022-08-10T06:30:53.539Z,100093.00
2022-08-10T06:31:53.563Z,100095.00
2022-08-10T06:32:53.553Z,100093.00
2022-08-10T06:33:53.579Z,100092.00
2022-08-10T06:34:53.566Z,100092.00
2022-08-10T06:35:53.589Z,100091.00
2022-08-10T06:36:53.619Z,100093.00
2022-08-10T06:37:53.637Z,100092.00
2022-08-10T06:38:53.675Z,100092.00
2022-08-10T06:39:53.749Z,100092.00
2022-08-10T06:40:53.668Z,100090.00
2022-08-10T06:42:15.443Z,100089.00
2022-08-10T06:42:53.702Z,100085.00
2022-08-10T06:43:53.737Z,100091.00
2022-08-10T06:44:53.725Z,100088.00
2022-08-10T06:46:07.470Z,100091.00
2022-08-10T06:46:53.770Z,100089.00
2022-08-10T06:47:53.802Z,100090.00
2022-08-10T06:48:53.793Z,100088.00
2022-08-10T06:49:53.821Z,100091.00
2022-08-10T06:50:58.325Z,100090.00
2022-08-10T06:51:57.457Z,100091.00
2022-08-10T06:52:53.886Z,100088.00
2022-08-10T06:53:55.231Z,100091.00
2022-08-10T06:54:53.904Z,100088.00
2022-08-10T06:55:56.389Z,100080.00
2022-08-10T06:57:16.600Z,100086.00
2022-08-10T06:57:59.973Z,100082.00
2022-08-10T06:58:53.959Z,100084.00
2022-08-10T06:59:53.985Z,100087.00
2022-08-10T07:00:54.108Z,100083.00
2022-08-10T07:01:53.991Z,100082.00
2022-08-10T07:02:54.034Z,100080.00
2022-08-10T07:03:54.055Z,100082.00
2022-08-10T07:04:54.066Z,100077.00
2022-08-10T07:05:54.147Z,100077.00
2022-08-10T07:06:54.140Z,100072.00
2022-08-10T07:07:54.121Z,100076.00
2022-08-10T07:08:54.144Z,100081.00
2022-08-10T07:09:54.167Z,100077.00
2022-08-10T07:10:54.196Z,100077.00
2022-08-10T07:11:54.217Z,100077.00
2022-08-10T07:12:54.211Z,100079.00
2022-08-10T07:14:17.272Z,100078.00
2022-08-10T07:14:54.264Z,100077.00
2022-08-10T07:15:59.493Z,100079.00
2022-08-10T07:16:54.317Z,100080.00
2022-08-10T07:17:54.294Z,100079.00
2022-08-10T07:18:54.300Z,100078.00
2022-08-10T07:19:54.324Z,100077.00
2022-08-10T07:20:54.339Z,100078.00
2022-08-10T07:21:58.074Z,100075.00
2022-08-10T07:23:01.785Z,100074.00
2022-08-10T07:23:59.703Z,100074.00
2022-08-10T07:24:54.398Z,100075.00
2022-08-10T07:25:54.414Z,100081.00
2022-08-10T07:26:54.444Z,100074.00
2022-08-10T07:27:59.617Z,100075.00
2022-08-10T07:28:54.467Z,100076.00
2022-08-10T07:29:54.906Z,100078.00
2022-08-10T07:30:54.508Z,100071.00
2022-08-10T07:31:57.560Z,100076.00
2022-08-10T07:32:54.491Z,100072.00
2022-08-10T07:33:54.518Z,100076.00
2022-08-10T07:34:54.523Z,100078.00
2022-08-10T07:35:54.545Z,100072.00
2022-08-10T07:36:54.525Z,100075.00
2022-08-10T07:37:54.536Z,100075.00
2022-08-10T07:38:54.567Z,100077.00
2022-08-10T07:40:03.188Z,100075.00
2022-08-10T07:40:54.585Z,100080.00
2022-08-10T07:41:54.603Z,100081.00
2022-08-10T07:42:54.643Z,100080.00
2022-08-10T07:43:54.616Z,100079.00
2022-08-10T07:44:54.628Z,100083.00
2022-08-10T07:45:54.651Z,100085.00
2022-08-10T07:46:54.636Z,100089.00
2022-08-10T07:47:55.062Z,100085.00
2022-08-10T07:48:54.661Z,100086.00
2022-08-10T07:49:54.679Z,100088.00
2022-08-10T07:50:54.699Z,100088.00
2022-08-10T07:51:55.193Z,100086.00
2022-08-10T07:52:54.703Z,100084.00
2022-08-10T07:53:54.729Z,100085.00
2022-08-10T07:54:54.747Z,100083.00
2022-08-10T07:56:07.521Z,100080.00
2022-08-10T07:56:54.796Z,100082.00
2022-08-10T07:57:54.813Z,100083.00
2022-08-10T07:58:54.854Z,100087.00
2022-08-10T07:59:54.816Z,100085.00
2022-08-10T08:00:54.821Z,100090.00
2022-08-10T08:01:54.941Z,100086.00
2022-08-10T08:02:54.830Z,100082.00
2022-08-10T08:04:05.689Z,100085.00
2022-08-10T08:04:54.878Z,100085.00
2022-08-10T08:06:02.555Z,100087.00
2022-08-10T08:06:54.904Z,100085.00
2022-08-10T08:07:54.943Z,100082.00
2022-08-10T08:08:54.951Z,100082.00
2022-08-10T08:09:58.346Z,100085.00
2022-08-10T08:10:54.974Z,100082.00
2022-08-10T08:11:54.990Z,100084.00
2022-08-10T08:12:55.027Z,100084.00
2022-08-10T08:13:55.020Z,100085.00
2022-08-10T08:14:55.002Z,100085.00
2022-08-10T08:16:18.180Z,100087.00
2022-08-10T08:16:55.073Z,100087.00
2022-08-10T08:18:00.464Z,100084.00
2022-08-10T08:19:25.569Z,100085.00
2022-08-10T08:19:55.434Z,100083.00
2022-08-10T08:20:55.285Z,100083.00
2022-08-10T08:24:05.430Z,100081.00
2022-08-10T08:24:07.954Z,100079.00
2022-08-10T08:24:31.649Z,100080.00
2022-08-10T08:24:55.239Z,100080.00
2022-08-10T08:25:55.218Z,100082.00
2022-08-10T08:26:55.231Z,100081.00
2022-08-10T08:27:55.229Z,100082.00
2022-08-10T08:28:55.236Z,100077.00
2022-08-10T08:29:55.273Z,100086.00
2022-08-10T08:30:55.273Z,100085.00
2022-08-10T08:32:01.543Z,100082.00
2022-08-10T08:32:55.294Z,100083.00
2022-08-10T08:33:55.308Z,100081.00
2022-08-10T08:34:55.334Z,100080.00
2022-08-10T08:35:55.309Z,100084.00
2022-08-10T08:36:59.464Z,100086.00
2022-08-10T08:38:34.469Z,100083.00
2022-08-10T08:38:55.556Z,100081.00
2022-08-10T08:39:55.331Z,100081.00
2022-08-10T08:40:55.363Z,100078.00
2022-08-10T08:41:55.347Z,100081.00
2022-08-10T08:42:55.361Z,100080.00
2022-08-10T08:43:55.393Z,100081.00
2022-08-10T08:44:55.417Z,100085.00
2022-08-10T08:46:00.869Z,100083.00
2022-08-10T08:46:59.323Z,100081.00
2022-08-10T08:48:05.828Z,100077.00
2022-08-10T08:48:55.429Z,100071.00
2022-08-10T08:50:08.129Z,100070.00
2022-08-10T08:50:57.745Z,100067.00
2022-08-10T08:52:07.902Z,100066.00
2022-08-10T08:52:55.471Z,100070.00
2022-08-10T08:54:01.614Z,100071.00
2022-08-10T08:54:55.502Z,100070.00
2022-08-10T08:56:05.912Z,100069.00
2022-08-10T08:56:55.554Z,100070.00
2022-08-10T08:57:55.572Z,100070.00
2022-08-10T08:58:55.583Z,100066.00
2022-08-10T08:59:55.602Z,100058.00
2022-08-10T09:00:55.651Z,100054.00
2022-08-10T09:01:55.699Z,100056.00
2022-08-10T09:02:55.672Z,100057.00
2022-08-10T09:03:55.691Z,100055.00
2022-08-10T09:04:55.703Z,100059.00
2022-08-10T09:05:59.285Z,100050.00
2022-08-10T09:06:55.710Z,100054.00
2022-08-10T09:08:00.112Z,100053.00
2022-08-10T09:08:55.765Z,100048.00
2022-08-10T09:09:55.794Z,100051.00
2022-08-10T09:10:55.829Z,100055.00
2022-08-10T09:11:55.843Z,100049.00
2022-08-10T09:12:55.861Z,100054.00
2022-08-10T09:13:55.864Z,100054.00
2022-08-10T09:14:55.892Z,100050.00
2022-08-10T09:16:00.507Z,100046.00
2022-08-10T09:16:55.936Z,100040.00
2022-08-10T09:17:55.938Z,100041.00
2022-08-10T09:18:55.981Z,100043.00
2022-08-10T09:19:56.014Z,100045.00
2022-08-10T09:20:56.067Z,100040.00
2022-08-10T09:22:13.072Z,100045.00
2022-08-10T09:22:57.721Z,100040.00
2022-08-10T09:24:04.479Z,100044.00
2022-08-10T09:24:56.110Z,100039.00
2022-08-10T09:25:56.136Z,100043.00
2022-08-10T09:26:56.156Z,100042.00
2022-08-10T09:27:56.170Z,100041.00
2022-08-10T09:29:11.979Z,100043.00
2022-08-10T09:29:56.183Z,100044.00
2022-08-10T09:31:22.007Z,100038.00
2022-08-10T09:36:16.127Z,100033.00
2022-08-10T09:36:16.410Z,100044.00
2022-08-10T09:36:22.289Z,100051.00
2022-08-10T09:36:24.066Z,100050.00
2022-08-10T09:36:28.042Z,100045.00
2022-08-10T09:36:56.358Z,100046.00
2022-08-10T09:38:01.938Z,100046.00
2022-08-10T09:38:56.381Z,100047.00
2022-08-10T09:40:56.433Z,100047.00
2022-08-10T09:41:03.057Z,100045.00
2022-08-10T09:41:56.447Z,100047.00
2022-08-10T09:43:14.551Z,100040.00
2022-08-10T09:43:56.491Z,100044.00
2022-08-10T09:44:58.226Z,100044.00
2022-08-10T09:45:56.617Z,100046.00
2022-08-10T09:46:56.567Z,100042.00
2022-08-10T09:48:01.196Z,100047.00
2022-08-10T09:48:56.584Z,100044.00
2022-08-10T09:50:00.909Z,100043.00
2022-08-10T09:51:34.838Z,100048.00
2022-08-10T09:51:57.517Z,100044.00
2022-08-10T09:52:59.086Z,100041.00
2022-08-10T09:53:56.701Z,100036.00
2022-08-10T09:54:57.012Z,100031.00
2022-08-10T09:56:18.966Z,100026.00
2022-08-10T09:57:07.135Z,100033.00
2022-08-10T09:57:56.970Z,100037.00
2022-08-10T09:59:26.796Z,100034.00
2022-08-10T10:00:00.808Z,100028.00
2022-08-10T10:00:56.678Z,100028.00
2022-08-10T10:02:03.487Z,100029.00
2022-08-10T10:02:56.866Z,100029.00
2022-08-10T10:03:56.704Z,100028.00
2022-08-10T10:04:56.789Z,100029.00
2022-08-10T10:05:57.973Z,100027.00
2022-08-10T10:06:56.898Z,100026.00
2022-08-10T10:07:56.842Z,100028.00
2022-08-10T10:08:58.485Z,100028.00
2022-08-10T10:09:57.404Z,100024.00
2022-08-10T10:10:56.813Z,100017.00
2022-08-10T10:11:57.018Z,100019.00
2022-08-10T10:12:56.873Z,100012.00
2022-08-10T10:14:02.970Z,100020.00
2022-08-10T10:14:56.959Z,100015.00
2022-08-10T10:15:56.935Z,100031.00
2022-08-10T10:16:56.906Z,100019.00
2022-08-10T10:17:57.017Z,100016.00
2022-08-10T10:18:57.247Z,100010.00
2022-08-10T10:19:57.123Z,100009.00
2022-08-10T10:20:56.971Z,100004.00
2022-08-10T10:21:57.007Z,100002.00
2022-08-10T10:22:57.054Z,100007.00
2022-08-10T10:24:21.375Z,100000.00
2022-08-10T10:24:56.984Z,99999.00
2022-08-10T10:26:01.669Z,99994.00
2022-08-10T10:26:56.968Z,99990.00
2022-08-10T10:27:57.098Z,99991.00
2022-08-10T10:29:24.858Z,99991.00
2022-08-10T10:29:59.275Z,99996.00
2022-08-10T10:30:57.153Z,99993.00
2022-08-10T10:31:57.165Z,99992.00
2022-08-10T10:32:58.307Z,99995.00
2022-08-10T10:33:57.072Z,99991.00
2022-08-10T10:34:57.105Z,99992.00
2022-08-10T10:35:57.162Z,99990.00
2022-08-10T10:36:57.218Z,99986.00
2022-08-10T10:38:10.165Z,99986.00
2022-08-10T10:38:57.228Z,99986.00
2022-08-10T10:39:57.171Z,99987.00
2022-08-10T10:40:57.226Z,99987.00
2022-08-10T10:42:04.599Z,99986.00
2022-08-10T10:42:57.392Z,99982.00
2022-08-10T10:43:57.343Z,99983.00
2022-08-10T10:44:57.354Z,99986.00
2022-08-10T10:45:57.362Z,99983.00
2022-08-10T10:46:57.280Z,99987.00
2022-08-10T10:47:57.319Z,99979.00
2022-08-10T10:48:57.592Z,99981.00
2022-08-10T10:49:57.417Z,99984.00
2022-08-10T10:50:57.380Z,99974.00
2022-08-10T10:52:00.097Z,99978.00
2022-08-10T10:52:57.331Z,99974.00
2022-08-10T10:53:57.388Z,99974.00
2022-08-10T10:54:57.513Z,99974.00
2022-08-10T10:56:15.816Z,99973.00
2022-08-10T10:56:57.431Z,99976.00
2022-08-10T10:57:59.567Z,99977.00
2022-08-10T10:58:57.402Z,99970.00
2022-08-10T10:59:57.898Z,99979.00
2022-08-10T11:00:57.663Z,99976.00
2022-08-10T11:01:57.557Z,99972.00
2022-08-10T11:02:57.435Z,99966.00
2022-08-10T11:03:57.709Z,99966.00
2022-08-10T11:04:57.589Z,99969.00
2022-08-10T11:05:57.543Z,99970.00
2022-08-10T11:06:57.412Z,99967.00
2022-08-10T11:07:57.538Z,99969.00
2022-08-10T11:08:57.651Z,99966.00
2022-08-10T11:10:05.157Z,99966.00
2022-08-10T11:10:58.615Z,99962.00
2022-08-10T11:12:00.116Z,99961.00
2022-08-10T11:12:57.614Z,99955.00
2022-08-10T11:14:25.225Z,99961.00
2022-08-10T11:14:57.964Z,99959.00
2022-08-10T11:15:57.576Z,99958.00
2022-08-10T11:16:58.605Z,99953.00
2022-08-10T11:17:57.672Z,99948.00
2022-08-10T11:18:57.677Z,99948.00
2022-08-10T11:20:00.264Z,99945.00
2022-08-10T11:20:57.650Z,99944.00
2022-08-10T11:21:57.571Z,99956.00
2022-08-10T11:22:57.579Z,99950.00
2022-08-10T11:24:42.676Z,99948.00
2022-08-10T11:24:57.549Z,99944.00
2022-08-10T11:25:58.739Z,99948.00
2022-08-10T11:26:57.644Z,99946.00
2022-08-10T11:27:57.611Z,99945.00